Pride — ZDFD7 — position and weather

sailwx.info

Track history (hours):
 
Tides and Currents Weather Stations Pressure Air Temp Water Temp Dewpoint Dewpoint Depression Visibility Wind Speed Wind Dir Waves Ship Positions

Pride

Last reported at 2016-May-06 21:30 UTC. Time now 2016-May-06 22:29 UTC.
Position N 43°42' E 007°17'.

Length 88 m; draft 4.2 m.

Type: Cargo ship. MMSI: 236166000.

Date/timePositionNaut miles runAvg speedWind from/ knotsBaromVisibWave heightAir tempDewpointWater temp
2016-May-06 21:30N 43°42' E 007°17'0 0.0
2016-May-06 20:32N 43°42' E 007°17'0 0.0
2016-May-06 19:32N 43°42' E 007°17'0 0.0
2016-May-06 18:32N 43°42' E 007°17'0 0.0
2016-May-06 17:32N 43°42' E 007°17'0 0.0
2016-May-06 16:20N 43°42' E 007°17'0 0.0
2016-May-06 15:20N 43°42' E 007°17'0 0.0
2016-May-06 14:25N 43°42' E 007°17'0 0.0
2016-May-06 13:32N 43°42' E 007°17'0 0.0
2016-May-06 12:05N 43°42' E 007°17'0 0.0
2016-May-06 11:29N 43°42' E 007°17'0 0.0
2016-May-06 10:27N 43°42' E 007°17'0 0.0
2016-May-06 09:10N 43°42' E 007°17'0 0.0
2016-May-06 08:28N 43°42' E 007°17'0 0.0
2016-May-06 07:26N 43°42' E 007°17'0 0.0
2016-May-06 06:32N 43°42' E 007°17'0 0.0
2016-May-06 05:27N 43°42' E 007°17'0 0.0
2016-May-06 04:27N 43°42' E 007°17'0 0.0
2016-May-06 03:09N 43°42' E 007°17'0 0.0
2016-May-06 02:33N 43°42' E 007°17'0 0.0
2016-May-06 01:29N 43°42' E 007°17'0 0.0
2016-May-06 00:29N 43°42' E 007°17'0 0.0
2016-May-05 23:28N 43°42' E 007°17'0 0.0
2016-May-05 22:22N 43°42' E 007°17'0 0.0
2016-May-05 21:28N 43°42' E 007°17'0 0.0
2016-May-05 20:28N 43°42' E 007°17'0 0.2
2016-May-05 19:33N 43°42' E 007°17'4 4.1
2016-May-05 18:33N 43°38' E 007°19'7 6.8
2016-May-05 17:33N 43°32' E 007°23'7 7.5
2016-May-05 16:33N 43°25' E 007°27'451 9.2
2016-May-03 15:23N 38°42' E 015°13'16 8.5
2016-May-03 13:33N 38°31' E 015°28'8 8.1
2016-May-03 12:32N 38°25' E 015°35'8 7.7
2016-May-03 11:33N 38°20' E 015°42'8 8.0
2016-May-03 10:33N 38°13' E 015°37'8 8.3
2016-May-03 09:33N 38°05' E 015°36'9 8.7
2016-May-03 08:30N 37°55' E 015°39'11 9.2
2016-May-03 07:20N 37°52' E 015°52'  
2016-Apr-29 17:30N 36°35' E 014°56'9 9.2
2016-Apr-29 16:33N 36°35' E 014°45'9 9.2
2016-Apr-29 15:33N 36°37' E 014°34'10 9.7
2016-Apr-29 14:33N 36°40' E 014°22'1010.1
2016-Apr-29 13:33N 36°42' E 014°10'1010.0
2016-Apr-29 12:33N 36°45' E 013°58'10 9.9
2016-Apr-29 11:33N 36°47' E 013°46'10 9.8
2016-Apr-29 10:33N 36°50' E 013°34'  
2016-Apr-27 06:33N 37°12' E 002°56'2310.6
2016-Apr-27 04:24N 37°06' E 002°28'910.9
2016-Apr-27 03:33N 37°04' E 002°17'3310.4
2016-Apr-27 00:24N 36°56' E 001°37'  
Track history (hours):
 
Tides and Currents Weather Stations Pressure Air Temp Water Temp Dewpoint Dewpoint Depression Visibility Wind Speed Wind Dir Waves Ship Positions

Pride

Last reported at 2016-May-06 21:30 UTC. Time now 2016-May-06 22:29 UTC.
Position N 43°42' E 007°17'.

Length 88 m; draft 4.2 m.

Type: Cargo ship. MMSI: 236166000.

Date/timePositionNaut miles runAvg speedWind from/ knotsBaromVisibWave heightAir tempDewpointWater temp
2016-May-06 21:30N 43°42' E 007°17'0 0.0
2016-May-06 20:32N 43°42' E 007°17'0 0.0
2016-May-06 19:32N 43°42' E 007°17'0 0.0
2016-May-06 18:32N 43°42' E 007°17'0 0.0
2016-May-06 17:32N 43°42' E 007°17'0 0.0
2016-May-06 16:20N 43°42' E 007°17'0 0.0
2016-May-06 15:20N 43°42' E 007°17'0 0.0
2016-May-06 14:25N 43°42' E 007°17'0 0.0
2016-May-06 13:32N 43°42' E 007°17'0 0.0
2016-May-06 12:05N 43°42' E 007°17'0 0.0
2016-May-06 11:29N 43°42' E 007°17'0 0.0
2016-May-06 10:27N 43°42' E 007°17'0 0.0
2016-May-06 09:10N 43°42' E 007°17'0 0.0
2016-May-06 08:28N 43°42' E 007°17'0 0.0
2016-May-06 07:26N 43°42' E 007°17'0 0.0
2016-May-06 06:32N 43°42' E 007°17'0 0.0
2016-May-06 05:27N 43°42' E 007°17'0 0.0
2016-May-06 04:27N 43°42' E 007°17'0 0.0
2016-May-06 03:09N 43°42' E 007°17'0 0.0
2016-May-06 02:33N 43°42' E 007°17'0 0.0
2016-May-06 01:29N 43°42' E 007°17'0 0.0
2016-May-06 00:29N 43°42' E 007°17'0 0.0
2016-May-05 23:28N 43°42' E 007°17'0 0.0
2016-May-05 22:22N 43°42' E 007°17'0 0.0
2016-May-05 21:28N 43°42' E 007°17'0 0.0
2016-May-05 20:28N 43°42' E 007°17'0 0.2
2016-May-05 19:33N 43°42' E 007°17'4 4.1
2016-May-05 18:33N 43°38' E 007°19'7 6.8
2016-May-05 17:33N 43°32' E 007°23'7 7.5
2016-May-05 16:33N 43°25' E 007°27'451 9.2
2016-May-03 15:23N 38°42' E 015°13'16 8.5
2016-May-03 13:33N 38°31' E 015°28'8 8.1
2016-May-03 12:32N 38°25' E 015°35'8 7.7
2016-May-03 11:33N 38°20' E 015°42'8 8.0
2016-May-03 10:33N 38°13' E 015°37'8 8.3
2016-May-03 09:33N 38°05' E 015°36'9 8.7
2016-May-03 08:30N 37°55' E 015°39'11 9.2
2016-May-03 07:20N 37°52' E 015°52'  
2016-Apr-29 17:30N 36°35' E 014°56'9 9.2
2016-Apr-29 16:33N 36°35' E 014°45'9 9.2
2016-Apr-29 15:33N 36°37' E 014°34'10 9.7
2016-Apr-29 14:33N 36°40' E 014°22'1010.1
2016-Apr-29 13:33N 36°42' E 014°10'1010.0
2016-Apr-29 12:33N 36°45' E 013°58'10 9.9
2016-Apr-29 11:33N 36°47' E 013°46'10 9.8
2016-Apr-29 10:33N 36°50' E 013°34'  
2016-Apr-27 06:33N 37°12' E 002°56'2310.6
2016-Apr-27 04:24N 37°06' E 002°28'910.9
2016-Apr-27 03:33N 37°04' E 002°17'3310.4
2016-Apr-27 00:24N 36°56' E 001°37'  

Dump ship's entire track history